createdAt,value
2022-08-22T00:01:28.860Z,98451.69
2022-08-22T00:02:48.063Z,98447.78
2022-08-22T00:02:53.248Z,98447.69
2022-08-22T00:03:11.562Z,98443.47
2022-08-22T00:03:55.446Z,98445.50
2022-08-22T00:06:36.150Z,98450.59
2022-08-22T00:09:20.262Z,98446.63
2022-08-22T00:11:58.124Z,98448.34
2022-08-22T00:14:32.835Z,98446.16
2022-08-22T00:17:14.019Z,98445.03
2022-08-22T00:19:47.043Z,98441.38
2022-08-22T00:22:19.819Z,98438.03
2022-08-22T00:24:58.531Z,98439.13
2022-08-22T00:27:34.409Z,98441.63
2022-08-22T00:30:07.969Z,98443.16
2022-08-22T00:32:43.915Z,98443.38
2022-08-22T00:39:04.742Z,98446.66
2022-08-22T00:41:42.134Z,98445.66
2022-08-22T00:44:08.477Z,98445.25
2022-08-22T00:46:54.130Z,98444.03
2022-08-22T00:49:32.552Z,98445.94
2022-08-22T00:52:25.725Z,98445.56
2022-08-22T00:55:01.813Z,98444.44
2022-08-22T00:57:28.147Z,98445.13
2022-08-22T01:00:13.446Z,98448.50
2022-08-22T01:02:40.763Z,98444.84
2022-08-22T01:05:26.779Z,98449.91
2022-08-22T01:08:12.899Z,98450.97
2022-08-22T01:10:44.785Z,98449.88
2022-08-22T01:13:29.944Z,98452.06
2022-08-22T01:16:04.088Z,98448.56
2022-08-22T01:18:44.366Z,98452.22
2022-08-22T01:21:10.646Z,98451.69
2022-08-22T01:24:05.525Z,98463.75
2022-08-22T01:26:46.664Z,98458.56
2022-08-22T01:29:31.491Z,98462.22
2022-08-22T01:31:58.206Z,98459.00
2022-08-22T01:34:42.060Z,98463.00
2022-08-22T01:37:26.954Z,98460.34
2022-08-22T01:40:12.976Z,98468.41
2022-08-22T01:43:06.319Z,98464.13
2022-08-22T01:45:32.619Z,98459.78
2022-08-22T01:48:12.297Z,98465.91
2022-08-22T01:50:57.933Z,98462.22
2022-08-22T01:53:38.971Z,98461.19
2022-08-22T01:56:21.912Z,98462.88
2022-08-22T01:58:59.834Z,98465.06
2022-08-22T02:01:37.043Z,98466.91
2022-08-22T02:04:14.332Z,98463.00
2022-08-22T02:06:44.585Z,98469.25
2022-08-22T02:09:20.301Z,98471.03
2022-08-22T02:11:50.155Z,98467.31
2022-08-22T02:14:25.300Z,98467.25
2022-08-22T02:17:08.207Z,98469.44
2022-08-22T02:19:39.940Z,98468.41
2022-08-22T02:22:21.547Z,98469.47
2022-08-22T02:25:10.015Z,98468.06
2022-08-22T02:27:39.734Z,98474.31
2022-08-22T02:30:09.814Z,98470.31
2022-08-22T02:32:42.276Z,98473.25
2022-08-22T02:35:17.685Z,98472.16
2022-08-22T02:38:02.713Z,98469.59
2022-08-22T02:40:35.206Z,98469.28
2022-08-22T02:43:19.998Z,98465.25
2022-08-22T02:45:55.093Z,98462.69
2022-08-22T02:48:37.269Z,98469.66
2022-08-22T02:51:13.220Z,98472.22
2022-08-22T02:53:48.814Z,98463.81
2022-08-22T02:56:18.650Z,98458.31
2022-08-22T02:58:59.133Z,98466.41
2022-08-22T03:01:32.489Z,98461.28
2022-08-22T03:04:18.218Z,98456.47
2022-08-22T03:06:59.403Z,98463.81
2022-08-22T03:09:29.568Z,98461.59
2022-08-22T03:12:09.531Z,98463.81
2022-08-22T03:14:43.423Z,98465.66
2022-08-22T03:17:23.505Z,98458.00
2022-08-22T03:20:02.113Z,98466.31
2022-08-22T03:22:41.667Z,98462.66
2022-08-22T03:25:48.500Z,98459.38
2022-08-22T03:28:18.465Z,98459.03
2022-08-22T03:31:05.293Z,98447.75
2022-08-22T03:33:32.121Z,98454.66
2022-08-22T03:36:01.822Z,98457.50
2022-08-22T03:38:34.292Z,98444.03
2022-08-22T03:41:12.969Z,98455.34
2022-08-22T03:44:01.896Z,98455.34
2022-08-22T03:46:47.059Z,98445.84
2022-08-22T03:49:32.326Z,98443.69
2022-08-22T03:51:58.616Z,98449.88
2022-08-22T03:54:33.904Z,98453.91
2022-08-22T03:57:18.822Z,98449.59
2022-08-22T03:59:48.153Z,98454.75
2022-08-22T04:02:42.170Z,98455.09
2022-08-22T04:05:06.967Z,98456.16
2022-08-22T04:07:54.511Z,98461.66
2022-08-22T04:10:39.879Z,98444.13
2022-08-22T04:13:12.761Z,98459.50
2022-08-22T04:15:58.050Z,98458.78
2022-08-22T04:18:36.257Z,98463.16
2022-08-22T04:21:21.388Z,98461.34
2022-08-22T04:24:06.613Z,98472.31
2022-08-22T04:29:23.034Z,98471.28
2022-08-22T04:32:10.656Z,98470.63
2022-08-22T04:34:57.414Z,98471.69
2022-08-22T04:37:29.034Z,98470.53
2022-08-22T04:40:11.959Z,98471.63
2022-08-22T04:42:40.892Z,98470.63
2022-08-22T04:45:14.045Z,98478.00
2022-08-22T04:47:43.032Z,98477.94
2022-08-22T04:50:21.528Z,98472.81
2022-08-22T04:53:08.923Z,98477.00
2022-08-22T04:55:39.697Z,98477.94
2022-08-22T04:58:32.340Z,98476.81
2022-08-22T05:01:11.012Z,98480.97
2022-08-22T05:03:45.043Z,98484.31
2022-08-22T05:06:13.426Z,98479.13
2022-08-22T05:08:40.394Z,98489.78
2022-08-22T05:11:07.601Z,98482.44
2022-08-22T05:13:39.130Z,98488.69
2022-08-22T05:16:09.498Z,98487.63
2022-08-22T05:18:39.394Z,98491.25
2022-08-22T05:21:08.200Z,98488.41
2022-08-22T05:23:39.532Z,98490.97
2022-08-22T05:26:07.271Z,98491.75
2022-08-22T05:28:42.447Z,98497.28
2022-08-22T05:31:10.935Z,98495.81
2022-08-22T05:33:42.046Z,98499.84
2022-08-22T05:36:15.720Z,98499.50
2022-08-22T05:38:47.162Z,98501.00
2022-08-22T05:41:17.860Z,98513.09
2022-08-22T05:43:45.089Z,98508.38
2022-08-22T05:46:26.984Z,98513.16
2022-08-22T05:48:57.941Z,98512.09
2022-08-22T05:51:27.926Z,98514.63
2022-08-22T05:54:01.669Z,98510.28
2022-08-22T05:56:35.834Z,98516.56
2022-08-22T05:59:08.467Z,98517.25
2022-08-22T06:01:53.701Z,98520.19
2022-08-22T06:04:30.176Z,98521.31
2022-08-22T06:06:59.893Z,98526.09
2022-08-22T06:09:46.675Z,98526.84
2022-08-22T06:12:31.416Z,98522.84
2022-08-22T06:15:00.367Z,98522.47
2022-08-22T06:17:28.910Z,98526.91
2022-08-22T06:19:55.337Z,98527.63
2022-08-22T06:22:24.211Z,98538.97
2022-08-22T06:24:52.956Z,98528.75
2022-08-22T06:27:22.934Z,98526.53
2022-08-22T06:29:57.691Z,98530.22
2022-08-22T06:32:52.869Z,98529.16
2022-08-22T06:35:19.441Z,98535.75
2022-08-22T06:37:47.778Z,98535.03
2022-08-22T06:40:15.432Z,98537.59
2022-08-22T06:42:43.291Z,98535.72
2022-08-22T06:45:18.792Z,98538.31
2022-08-22T06:47:53.936Z,98537.94
2022-08-22T06:50:31.849Z,98532.78
2022-08-22T06:53:05.393Z,98529.81
2022-08-22T06:55:32.422Z,98536.78
2022-08-22T06:58:03.579Z,98533.44
2022-08-22T07:00:31.705Z,98536.34
2022-08-22T07:03:18.267Z,98537.84
2022-08-22T07:05:44.589Z,98539.31
2022-08-22T07:08:13.627Z,98532.69
2022-08-22T07:10:41.235Z,98530.84
2022-08-22T07:13:11.683Z,98534.84
2022-08-22T07:15:41.137Z,98542.56
2022-08-22T07:18:16.855Z,98540.75
2022-08-22T07:20:47.484Z,98535.53
2022-08-22T07:23:24.505Z,98539.16
2022-08-22T07:25:52.724Z,98540.63
2022-08-22T07:28:51.085Z,98544.59
2022-08-22T07:31:42.254Z,98533.50
2022-08-22T07:34:27.529Z,98533.50
2022-08-22T07:37:01.148Z,98537.38
2022-08-22T07:39:27.445Z,98539.84
2022-08-22T07:41:59.126Z,98535.09
2022-08-22T07:44:29.456Z,98538.00
2022-08-22T07:46:58.557Z,98544.91
2022-08-22T07:49:26.785Z,98543.34
2022-08-22T07:51:55.129Z,98542.34
2022-08-22T07:54:27.120Z,98540.66
2022-08-22T07:56:57.689Z,98545.97
2022-08-22T07:59:24.559Z,98540.78
2022-08-22T08:01:53.023Z,98550.91
2022-08-22T08:04:21.000Z,98533.94
2022-08-22T08:06:48.591Z,98541.66
2022-08-22T08:09:16.225Z,98532.25
2022-08-22T08:11:43.532Z,98547.38
2022-08-22T08:14:13.629Z,98545.47
2022-08-22T08:16:59.075Z,98544.25
2022-08-22T08:19:25.751Z,98543.22
2022-08-22T08:21:54.112Z,98544.09
2022-08-22T08:24:36.196Z,98544.59
2022-08-22T08:27:27.531Z,98553.69
2022-08-22T08:29:58.862Z,98549.91
2022-08-22T08:32:27.825Z,98548.13
2022-08-22T08:34:54.318Z,98539.53
2022-08-22T08:37:35.076Z,98543.91
2022-08-22T08:40:03.231Z,98538.38
2022-08-22T08:42:56.517Z,98542.91
2022-08-22T08:45:43.575Z,98540.53
2022-08-22T08:48:24.886Z,98527.53
2022-08-22T08:50:58.008Z,98542.63
2022-08-22T08:53:44.018Z,98535.03
2022-08-22T08:56:25.259Z,98537.47
2022-08-22T08:59:00.338Z,98537.84
2022-08-22T09:01:46.114Z,98538.38
2022-08-22T09:04:21.676Z,98536.22
2022-08-22T09:07:01.389Z,98535.41
2022-08-22T09:09:43.264Z,98537.69
2022-08-22T09:12:16.494Z,98541.69
2022-08-22T09:14:52.367Z,98538.31
2022-08-22T09:17:34.423Z,98544.09
2022-08-22T09:20:15.532Z,98536.63
2022-08-22T09:23:10.103Z,98539.53
2022-08-22T09:25:42.711Z,98538.59
2022-08-22T09:28:10.580Z,98546.94
2022-08-22T09:31:00.266Z,98543.50
2022-08-22T09:33:33.978Z,98546.66
2022-08-22T09:36:06.251Z,98553.06
2022-08-22T09:38:55.325Z,98537.03
2022-08-22T09:41:30.528Z,98536.97
2022-08-22T09:44:09.251Z,98538.06
2022-08-22T09:46:44.125Z,98535.69
2022-08-22T09:49:25.681Z,98539.78
2022-08-22T09:52:15.253Z,98537.09
2022-08-22T09:55:03.259Z,98539.59
2022-08-22T09:57:42.547Z,98544.50
2022-08-22T10:00:14.685Z,98542.91
2022-08-22T10:02:54.808Z,98536.88
2022-08-22T10:05:40.437Z,98544.38
2022-08-22T10:08:30.400Z,98543.38
2022-08-22T10:11:09.740Z,98538.06
2022-08-22T10:13:41.915Z,98545.81
2022-08-22T10:16:26.873Z,98555.44
2022-08-22T10:19:16.930Z,98558.88
2022-08-22T10:21:48.136Z,98551.81
2022-08-22T10:24:25.149Z,98556.94
2022-08-22T10:27:02.764Z,98559.38
2022-08-22T10:29:38.258Z,98557.94
2022-08-22T10:32:19.678Z,98564.53
2022-08-22T10:34:55.742Z,98559.47
2022-08-22T10:37:30.483Z,98564.56
2022-08-22T10:40:14.939Z,98561.22
2022-08-22T10:42:44.922Z,98557.94
2022-08-22T10:45:24.066Z,98558.28
2022-08-22T10:48:08.984Z,98564.34
2022-08-22T10:50:36.990Z,98562.88
2022-08-22T10:53:29.452Z,98568.97
2022-08-22T10:56:14.881Z,98567.72
2022-08-22T10:58:56.162Z,98565.00
2022-08-22T11:01:38.461Z,98571.19
2022-08-22T11:04:28.346Z,98581.50
2022-08-22T11:07:12.202Z,98571.66
2022-08-22T11:09:39.955Z,98575.84
2022-08-22T11:12:18.249Z,98564.69
2022-08-22T11:15:03.250Z,98577.38
2022-08-22T11:17:54.193Z,98577.03
2022-08-22T11:20:21.417Z,98570.16
2022-08-22T11:22:48.105Z,98566.00
2022-08-22T11:25:38.580Z,98571.94
2022-08-22T11:28:20.544Z,98576.53
2022-08-22T11:31:07.202Z,98576.75
2022-08-22T11:33:46.902Z,98576.50
2022-08-22T11:36:33.011Z,98582.78
2022-08-22T11:38:59.545Z,98583.03
2022-08-22T11:41:36.637Z,98579.53
2022-08-22T11:44:06.891Z,98587.97
2022-08-22T11:46:35.504Z,98589.88
2022-08-22T11:49:04.798Z,98591.81
2022-08-22T11:51:34.225Z,98592.47
2022-08-22T11:54:17.952Z,98594.59
2022-08-22T11:56:48.913Z,98590.06
2022-08-22T11:59:28.238Z,98585.00
2022-08-22T12:02:00.470Z,98583.09
2022-08-22T12:04:35.772Z,98577.63
2022-08-22T12:07:18.260Z,98585.84
2022-08-22T12:09:52.006Z,98583.91
2022-08-22T12:12:20.204Z,98582.22
2022-08-22T12:15:03.223Z,98582.59
2022-08-22T12:17:55.796Z,98573.13
2022-08-22T12:20:38.814Z,98574.09
2022-08-22T12:23:48.610Z,98573.50
2022-08-22T12:26:33.917Z,98576.63
2022-08-22T12:29:18.900Z,98573.84
2022-08-22T12:32:04.685Z,98569.19
2022-08-22T12:34:39.426Z,98569.41
2022-08-22T12:37:08.274Z,98554.53
2022-08-22T12:39:41.087Z,98549.81
2022-08-22T12:42:19.996Z,98545.41
2022-08-22T12:44:46.284Z,98544.44
2022-08-22T12:47:38.555Z,98544.38
2022-08-22T12:50:19.716Z,98540.09
2022-08-22T12:52:47.901Z,98538.00
2022-08-22T12:55:14.315Z,98541.41
2022-08-22T12:57:40.726Z,98535.66
2022-08-22T13:00:26.877Z,98536.69
2022-08-22T13:02:54.427Z,98534.44
2022-08-22T13:05:22.695Z,98532.97
2022-08-22T13:08:02.327Z,98533.22
2022-08-22T13:10:31.084Z,98530.84
2022-08-22T13:12:58.405Z,98532.69
2022-08-22T13:15:28.512Z,98535.38
2022-08-22T13:18:08.672Z,98530.53
2022-08-22T13:20:44.891Z,98538.03
2022-08-22T13:23:17.747Z,98535.44
2022-08-22T13:25:55.015Z,98531.00
2022-08-22T13:28:21.877Z,98537.66
2022-08-22T13:30:51.954Z,98540.19
2022-08-22T13:33:33.029Z,98543.53
2022-08-22T13:36:10.959Z,98540.59
2022-08-22T13:38:46.373Z,98540.63
2022-08-22T13:41:18.148Z,98540.25
2022-08-22T13:43:59.684Z,98533.56
2022-08-22T13:46:28.228Z,98535.03
2022-08-22T13:49:00.822Z,98533.56
2022-08-22T13:51:30.167Z,98537.16
2022-08-22T13:54:02.797Z,98531.66
2022-08-22T13:56:52.635Z,98535.28
2022-08-22T13:59:49.733Z,98536.44
2022-08-22T14:02:18.676Z,98524.75
2022-08-22T14:04:47.497Z,98538.28
2022-08-22T14:07:43.307Z,98534.66
2022-08-22T14:10:15.327Z,98537.44
2022-08-22T14:12:50.096Z,98532.97
2022-08-22T14:15:21.152Z,98521.16
2022-08-22T14:17:48.292Z,98522.88
2022-08-22T14:20:32.016Z,98526.44
2022-08-22T14:23:04.204Z,98527.16
2022-08-22T14:25:35.294Z,98516.41
2022-08-22T14:28:06.506Z,98509.75
2022-08-22T14:30:54.200Z,98514.38
2022-08-22T14:33:26.507Z,98514.16
2022-08-22T14:35:56.435Z,98509.41
2022-08-22T14:38:29.955Z,98508.84
2022-08-22T14:41:05.425Z,98502.84
2022-08-22T14:43:31.943Z,98507.25
2022-08-22T14:46:05.601Z,98504.41
2022-08-22T14:48:48.618Z,98501.75
2022-08-22T14:51:21.237Z,98507.59
2022-08-22T14:53:48.303Z,98508.03
2022-08-22T14:56:24.686Z,98502.06
2022-08-22T14:59:02.772Z,98503.72
2022-08-22T15:01:32.897Z,98505.56
2022-08-22T15:04:04.774Z,98506.28
2022-08-22T15:06:36.172Z,98505.47
2022-08-22T15:09:07.712Z,98512.78
2022-08-22T15:11:34.535Z,98503.59
2022-08-22T15:14:06.603Z,98500.81
2022-08-22T15:16:40.468Z,98503.50
2022-08-22T15:19:23.081Z,98508.41
2022-08-22T15:21:49.948Z,98499.13
2022-08-22T15:24:16.722Z,98501.28
2022-08-22T15:26:51.760Z,98497.91
2022-08-22T15:29:20.344Z,98498.91
2022-08-22T15:31:49.640Z,98500.22
2022-08-22T15:34:37.851Z,98494.13
2022-08-22T15:37:20.388Z,98499.38
2022-08-22T15:40:02.946Z,98495.81
2022-08-22T15:42:36.772Z,98496.50
2022-08-22T15:45:04.603Z,98493.50
2022-08-22T15:47:38.239Z,98498.84
2022-08-22T15:50:07.927Z,98495.53
2022-08-22T15:53:04.652Z,98498.19
2022-08-22T15:55:31.839Z,98500.34
2022-08-22T15:58:12.922Z,98493.63
2022-08-22T16:00:45.326Z,98494.34
2022-08-22T16:03:26.327Z,98489.50
2022-08-22T16:05:55.955Z,98488.16
2022-08-22T16:08:25.298Z,98485.03
2022-08-22T16:11:11.491Z,98489.75
2022-08-22T16:13:40.839Z,98487.84
2022-08-22T16:16:07.212Z,98484.91
2022-08-22T16:18:33.678Z,98480.19
2022-08-22T16:21:08.051Z,98475.31
2022-08-22T16:23:49.850Z,98479.59
2022-08-22T16:26:18.052Z,98487.34
2022-08-22T16:28:58.913Z,98485.03
2022-08-22T16:31:31.851Z,98485.72
2022-08-22T16:34:18.331Z,98487.56
2022-08-22T16:37:03.100Z,98490.53
2022-08-22T16:39:35.638Z,98492.16
2022-08-22T16:42:22.200Z,98485.00
2022-08-22T16:44:54.563Z,98486.38
2022-08-22T16:47:22.461Z,98486.50
2022-08-22T16:49:51.758Z,98484.47
2022-08-22T16:52:21.237Z,98491.25
2022-08-22T16:54:49.149Z,98501.84
2022-08-22T16:57:20.420Z,98507.13
2022-08-22T16:59:47.030Z,98503.16
2022-08-22T17:02:25.786Z,98508.84
2022-08-22T17:05:04.258Z,98507.66
2022-08-22T17:07:43.828Z,98511.81
2022-08-22T17:10:21.570Z,98515.53
2022-08-22T17:12:54.065Z,98519.28
2022-08-22T17:15:25.841Z,98515.22
2022-08-22T17:17:55.350Z,98515.59
2022-08-22T17:20:40.712Z,98507.94
2022-08-22T17:23:28.664Z,98511.59
2022-08-22T17:26:08.769Z,98508.84
2022-08-22T17:28:46.116Z,98513.50
2022-08-22T17:31:32.468Z,98516.09
2022-08-22T17:34:17.377Z,98523.91
2022-08-22T17:36:43.990Z,98526.16
2022-08-22T17:39:18.948Z,98520.66
2022-08-22T17:41:50.772Z,98527.31
2022-08-22T17:44:22.152Z,98528.44
2022-08-22T17:47:07.281Z,98538.75
2022-08-22T17:49:45.150Z,98548.38
2022-08-22T17:52:27.831Z,98538.06
2022-08-22T17:55:06.131Z,98543.31
2022-08-22T17:57:44.274Z,98547.44
2022-08-22T18:00:18.412Z,98552.25
2022-08-22T18:02:56.258Z,98553.72
2022-08-22T18:05:31.542Z,98550.78
2022-08-22T18:07:57.833Z,98548.94
2022-08-22T18:10:38.303Z,98552.25
2022-08-22T18:13:07.700Z,98555.19
2022-08-22T18:15:40.284Z,98558.50
2022-08-22T18:18:19.544Z,98555.31
2022-08-22T18:20:48.381Z,98557.16
2022-08-22T18:23:35.585Z,98555.31
2022-08-22T18:26:20.530Z,98547.94
2022-08-22T18:28:57.196Z,98550.94
2022-08-22T18:31:23.472Z,98547.63
2022-08-22T18:33:54.027Z,98549.56
2022-08-22T18:36:23.454Z,98554.72
2022-08-22T18:38:50.621Z,98560.28
2022-08-22T18:41:24.371Z,98561.06
2022-08-22T18:43:53.299Z,98568.44
2022-08-22T18:46:26.610Z,98567.41
2022-08-22T18:49:14.258Z,98569.97
2022-08-22T18:51:39.930Z,98568.50
2022-08-22T18:54:09.007Z,98565.56
2022-08-22T18:56:50.252Z,98566.66
2022-08-22T18:59:35.099Z,98565.94
2022-08-22T19:02:13.527Z,98562.63
2022-08-22T19:05:05.265Z,98569.28
2022-08-22T19:07:49.784Z,98563.06
2022-08-22T19:10:27.651Z,98564.25
2022-08-22T19:13:00.632Z,98562.03
2022-08-22T19:15:32.021Z,98569.78
2022-08-22T19:18:17.038Z,98563.22
2022-08-22T19:21:02.299Z,98565.06
2022-08-22T19:23:31.594Z,98561.88
2022-08-22T19:26:16.784Z,98568.44
2022-08-22T19:28:43.183Z,98567.38
2022-08-22T19:31:42.760Z,98563.41
2022-08-22T19:34:28.298Z,98560.78
2022-08-22T19:37:32.517Z,98555.69
2022-08-22T19:40:00.827Z,98559.06
2022-08-22T19:42:31.935Z,98566.47
2022-08-22T19:45:01.339Z,98572.41
2022-08-22T19:47:34.728Z,98579.75
2022-08-22T19:50:01.030Z,98562.47
2022-08-22T19:52:32.529Z,98571.34
2022-08-22T19:55:07.007Z,98575.44
2022-08-22T19:57:55.941Z,98575.44
2022-08-22T20:00:24.608Z,98572.84
2022-08-22T20:02:50.948Z,98575.06
2022-08-22T20:05:23.077Z,98572.94
2022-08-22T20:07:56.021Z,98577.00
2022-08-22T20:10:29.538Z,98573.00
2022-08-22T20:13:02.153Z,98570.44
2022-08-22T20:15:30.240Z,98574.47
2022-08-22T20:18:46.427Z,98579.63
2022-08-22T20:20:56.872Z,98576.69
2022-08-22T20:23:26.573Z,98582.53
2022-08-22T20:25:55.865Z,98575.28
2022-08-22T20:28:34.370Z,98569.38
2022-08-22T20:31:04.059Z,98567.91
2022-08-22T20:33:35.364Z,98563.13
2022-08-22T20:36:05.139Z,98579.69
2022-08-22T20:38:34.823Z,98573.44
2022-08-22T20:41:11.404Z,98566.47
2022-08-22T20:43:38.636Z,98571.56
2022-08-22T20:46:24.023Z,98563.16
2022-08-22T20:48:51.976Z,98566.47
2022-08-22T20:51:21.877Z,98561.34
2022-08-22T20:54:02.054Z,98565.00
2022-08-22T20:56:36.802Z,98553.56
2022-08-22T20:59:14.505Z,98554.00
2022-08-22T21:01:40.885Z,98564.28
2022-08-22T21:04:07.637Z,98549.25
2022-08-22T21:06:35.997Z,98550.34
2022-08-22T21:09:36.819Z,98546.31
2022-08-22T21:12:03.703Z,98548.16
2022-08-22T21:14:34.050Z,98548.91
2022-08-22T21:17:15.963Z,98549.94
2022-08-22T21:19:42.280Z,98548.84
2022-08-22T21:22:15.773Z,98553.25
2022-08-22T21:24:42.202Z,98555.47
2022-08-22T21:27:14.407Z,98563.19
2022-08-22T21:29:46.118Z,98559.19
2022-08-22T21:32:23.453Z,98552.91
2022-08-22T21:34:50.139Z,98551.84
2022-08-22T21:37:22.640Z,98550.72
2022-08-22T21:39:50.463Z,98550.72
2022-08-22T21:42:24.753Z,98555.84
2022-08-22T21:45:00.570Z,98559.53
2022-08-22T21:47:32.703Z,98547.78
2022-08-22T21:50:18.790Z,98552.91
2022-08-22T21:53:05.532Z,98553.25
2022-08-22T21:55:38.309Z,98556.97
2022-08-22T21:58:04.633Z,98551.09
2022-08-22T22:00:50.678Z,98557.34
2022-08-22T22:03:21.518Z,98550.41
2022-08-22T22:05:49.451Z,98551.84
2022-08-22T22:08:16.302Z,98547.09
2022-08-22T22:10:43.281Z,98549.63
2022-08-22T22:13:10.229Z,98548.94
2022-08-22T22:15:40.565Z,98553.28
2022-08-22T22:18:06.964Z,98547.06
2022-08-22T22:20:33.944Z,98556.22
2022-08-22T22:23:00.260Z,98558.81
2022-08-22T22:25:41.191Z,98553.31
2022-08-22T22:28:10.604Z,98556.97
2022-08-22T22:30:37.074Z,98554.75
2022-08-22T22:33:03.492Z,98547.81
2022-08-22T22:35:30.417Z,98547.81
2022-08-22T22:37:56.883Z,98552.59
2022-08-22T22:40:24.183Z,98549.28
2022-08-22T22:42:50.714Z,98549.28
2022-08-22T22:45:17.105Z,98550.34
2022-08-22T22:47:43.654Z,98545.56
2022-08-22T22:50:10.034Z,98541.19
2022-08-22T22:52:40.674Z,98538.28
2022-08-22T22:55:07.950Z,98535.34
2022-08-22T22:57:42.540Z,98533.53
2022-08-22T23:00:10.893Z,98523.63
2022-08-22T23:02:37.234Z,98524.00
2022-08-22T23:05:03.776Z,98511.16
2022-08-22T23:07:30.165Z,98515.16
2022-08-22T23:10:01.487Z,98517.69
2022-08-22T23:12:28.578Z,98518.06
2022-08-22T23:14:54.986Z,98519.94
2022-08-22T23:17:21.433Z,98524.69
2022-08-22T23:19:47.832Z,98528.38
2022-08-22T23:22:14.237Z,98531.66
2022-08-22T23:24:41.700Z,98533.53
2022-08-22T23:27:08.930Z,98535.00
2022-08-22T23:29:35.731Z,98537.19
2022-08-22T23:32:02.868Z,98546.72
2022-08-22T23:34:30.947Z,98544.53
2022-08-22T23:36:59.009Z,98543.44
2022-08-22T23:39:26.542Z,98544.53
2022-08-22T23:41:52.981Z,98545.25
2022-08-22T23:44:21.164Z,98542.72
2022-08-22T23:46:47.533Z,98535.34
2022-08-22T23:49:14.652Z,98529.47
2022-08-22T23:51:42.310Z,98523.56
2022-08-22T23:54:09.014Z,98524.72
2022-08-22T23:56:40.032Z,98524.72
2022-08-22T23:59:10.486Z,98522.16
